• Join FlightAware (Why Join?)
  • Login
  • US Flag 
10:38PM EDT


 

Airport Tracker/Info


-or-


 

Live Flight TrackerFlight Track Log ✈ GJS3649 ✈ 29-Jun-2013 ✈ KORD - KRDU

Flight Track Log - Related Links

Times and Time Zones

All times are in EDT time to prevent confusion due to time zone crossing. See the GJS3649 flight status page for this flight to view local times or setup timezone preferences in your user account.

Time Position Orientation Groundspeed Altitude Reporting Facility
EDT Latitude Longitude Course Direction KTS MPH feet Rate Location/Type
04:09PM 42.0000 -87.8667 90° East 162 186 1,900  Level Chicago TRACON
04:10PM 42.0000 -87.8000 90° East 220 253 3,600 1,620 Climbing Chicago TRACON
04:11PM 42.0000 -87.7000 90° East 262 302 5,000 1,920 Climbing Chicago TRACON
04:12PM 41.9986 -87.5997 91° East 269 310 8,000 2,700 Climbing Chicago Center
04:13PM 41.9856 -87.4725 98° East 285 328 11,300 2,760 Climbing Chicago Center
04:14PM 41.9744 -87.3614 98° East 297 342 13,700 1,800 Climbing Chicago Center
04:15PM 41.9633 -87.2467 97° East 309 356 15,000 1,200 Climbing Chicago Center
04:16PM 41.9583 -87.1200 93° East 342 394 16,300 1,620 Climbing Chicago Center
04:17PM 41.9628 -86.9842 87° East 364 419 18,400 1,860 Climbing Chicago Center
04:18PM 41.9686 -86.8439 87° East 377 434 20,200 1,860 Climbing Chicago Center
04:19PM 41.9803 -86.6781 85° East 387 445 22,300 1,800 Climbing Chicago Center
04:20PM 41.9933 -86.5319 83° East 394 453 24,000 1,440 Climbing Chicago Center
04:21PM 42.0219 -86.3886 75° East 400 460 25,300 960 Climbing Chicago Center
04:22PM 42.0389 -86.2344 82° East 419 482 26,000 840 Climbing Chicago Center
04:23PM 42.0494 -86.0742 85° East 427 491 27,100 1,380 Climbing Chicago Center
04:24PM 42.0472 -85.8972 91° East 424 488 28,900 1,260 Climbing Chicago Center
04:25PM 42.0350 -85.7397 96° East 425 489 29,800 900 Climbing Chicago Center
04:26PM 42.0206 -85.5800 97° East 431 496 30,800 960 Climbing Chicago Center
04:27PM 42.0053 -85.4167 97° East 441 507 31,800 1,140 Climbing Chicago Center
04:28PM 41.9914 -85.2333 96° East 440 506 33,200 1,080 Climbing Chicago Center
04:29PM 41.9792 -85.0711 96° East 435 501 34,100 840 Climbing Chicago Center
04:30PM 41.9647 -84.9064 97° East 440 506 35,000 960 Climbing Chicago Center
04:32PM 41.9311 -84.7492 106° East 439 505 36,100 840 Climbing Chicago Center
04:33PM 41.8403 -84.6439 139° Southeast 434 499 36,800 540 Climbing Chicago Center
04:33PM 41.7836 -84.5881 144° Southeast 411 473 37,000 120 Climbing Cleveland Center
04:34PM 41.6806 -84.4953 146° Southeast 432 497 37,000  Level Cleveland Center
04:35PM 41.5894 -84.4147 147° Southeast 442 509 37,000  Level Cleveland Center
04:36PM 41.5308 -84.3653 148° Southeast 453 521 37,000  Level Chicago Center
04:37PM 41.4206 -84.2922 154° Southeast 441 507 37,000  Level Chicago Center
04:38PM 41.3017 -84.1653 141° Southeast 456 525 37,000  Level Chicago Center
04:39PM 41.2133 -84.0433 134° Southeast 458 527 37,000  Level Chicago Center
04:40PM 41.1169 -83.9358 140° Southeast 455 524 37,000  Level Chicago Center
04:40PM 41.0608 -83.8844 145° Southeast 460 529 37,000 300 Level Indianapolis Center
04:41PM 40.9372 -83.7956 151° Southeast 464 534 37,500 480 Climbing Indianapolis Center
04:42PM 40.8169 -83.7347 159° South 460 529 38,000 240 Climbing Indianapolis Center
04:43PM 40.6967 -83.6783 160° South 456 525 38,000  Level Indianapolis Center
04:44PM 40.5781 -83.6256 161° South 447 514 38,100 300 Climbing Indianapolis Center
04:45PM 40.4606 -83.5683 160° South 445 512 38,700 420 Climbing Indianapolis Center
04:46PM 40.3492 -83.4975 154° Southeast 440 506 39,000 120 Climbing Indianapolis Center
04:48PM 40.2439 -83.4003 145° Southeast 455 524 39,000  Level Indianapolis Center
04:49PM 40.1486 -83.2797 136° Southeast 466 536 39,000  Level Indianapolis Center
04:50PM 40.0572 -83.1539 133° Southeast 467 537 39,000  Level Indianapolis Center
04:51PM 39.9625 -83.0336 136° Southeast 468 539 39,000  Level Indianapolis Center
04:52PM 39.8697 -82.9103 134° Southeast 469 540 39,000  Level Indianapolis Center
04:53PM 39.7781 -82.7872 134° Southeast 468 539 39,000  Level Indianapolis Center
04:54PM 39.6711 -82.6453 134° Southeast 466 536 39,000  Level Indianapolis Center
04:55PM 39.5808 -82.5219 134° Southeast 466 536 39,000  Level Indianapolis Center
04:56PM 39.4906 -82.4003 134° Southeast 463 533 39,000  Level Indianapolis Center
04:57PM 39.4014 -82.2789 134° Southeast 463 533 39,000  Level Indianapolis Center
04:58PM 39.3125 -82.1575 133° Southeast 464 534 39,000  Level Indianapolis Center
04:59PM 39.2142 -82.0561 141° Southeast 453 521 39,000  Level Indianapolis Center
05:00PM 39.1167 -81.9467 139° Southeast 460 529 39,000  Level Indianapolis Center
05:01PM 39.0158 -81.8367 140° Southeast 473 544 39,000  Level Indianapolis Center
05:02PM 38.9153 -81.7261 139° Southeast 476 548 39,000  Level Indianapolis Center
05:03PM 38.8136 -81.6144 139° Southeast 478 550 39,000 -300 Level Indianapolis Center
05:04PM 38.6911 -81.4831 140° Southeast 482 555 38,400 -780 Descending Indianapolis Center
05:05PM 38.6003 -81.3869 140° Southeast 472 543 37,500 -900 Descending Indianapolis Center
05:06PM 38.5003 -81.2808 140° Southeast 467 537 36,600 -900 Descending Indianapolis Center
05:07PM 38.4039 -81.1778 140° Southeast 456 525 35,700 -900 Descending Indianapolis Center
05:08PM 38.3081 -81.0761 140° Southeast 444 511 34,800 -1,020 Descending Indianapolis Center
05:09PM 38.1878 -80.9481 140° Southeast 467 537 33,700 -1,020 Descending Indianapolis Center
05:10PM 38.0856 -80.8417 141° Southeast 474 545 32,800 -900 Descending Indianapolis Center
05:11PM 37.9822 -80.7339 141° Southeast 478 550 31,900 -900 Descending Indianapolis Center
05:12PM 37.8803 -80.6278 141° Southeast 477 549 31,000 -900 Descending Indianapolis Center
05:13PM 37.7819 -80.5247 140° Southeast 463 533 30,100 -1,200 Descending Indianapolis Center
05:14PM 37.6892 -80.4289 141° Southeast 448 516 28,600 -1,680 Descending Indianapolis Center
05:15PM 37.5817 -80.3172 141° Southeast 430 495 26,700 -1,680 Descending Indianapolis Center
05:16PM 37.4928 -80.2258 141° Southeast 425 489 25,200 -1,320 Descending Indianapolis Center
05:17PM 37.4064 -80.1306 139° Southeast 426 490 24,000 -600 Descending Indianapolis Center
05:18PM 37.3042 -80.0064 136° Southeast 442 509 24,000  Level Indianapolis Center
05:19PM 37.2164 -79.9000 136° Southeast 452 520 24,000 -120 Level Indianapolis Center
05:20PM 37.1250 -79.7919 137° Southeast 462 532 23,800 -660 Descending Indianapolis Center
05:21PM 37.0383 -79.6872 136° Southeast 452 520 22,700 -1,140 Descending Indianapolis Center
05:23PM 36.9269 -79.5567 137° Southeast 456 525 21,300 -1,080 Descending Washington Center
05:23PM 36.8286 -79.4428 137° Southeast 449 517 20,400 -1,500 Descending Washington Center
05:24PM 36.7442 -79.3400 136° Southeast 444 511 18,400 -2,220 Descending Washington Center
05:26PM 36.6656 -79.2481 137° Southeast 425 489 15,900 -2,580 Descending Washington Center
05:26PM 36.6172 -79.1942 138° Southeast 368 423 14,300 -1,860 Descending Washington Center
05:27PM 36.5325 -79.0919 136° Southeast 332 382 12,500 -1,320 Descending Washington Center
05:28PM 36.4619 -79.0114 137° Southeast 330 380 11,300 -1,080 Descending Washington Center
05:29PM 36.4014 -78.9389 136° Southeast 303 349 10,300 -1,260 Descending Washington Center
05:30PM 36.3297 -78.8894 151° Southeast 289 333 8,800 -1,560 Descending Washington Center
05:31PM 36.2578 -78.8556 159° South 280 322 7,200 -1,320 Descending Washington Center
05:32PM 36.1858 -78.8142 155° Southeast 278 320 6,300 -1,140 Descending Washington Center
05:33PM 36.1281 -78.7886 160° South 257 296 5,000 -1,560 Descending Washington Center
05:34PM 36.0581 -78.7550 159° South 249 287 3,300 -1,380 Descending Washington Center
05:35PM 35.9939 -78.7344 165° South 236 272 2,200 -900 Descending Washington Center
05:37PM 35.9394 -78.7372 182° South 156 180 1,500 -660 Descending Washington Center
05:38PM 35.9075 -78.7617 212° Southwest 126 145 900 -600 Descending Washington Center
05:40PM 35.8776 -78.7875 90° East  Level Estimated